Time;durP1;ratioP1;P1;durP2;ratioP2;P2;SDS_P1;SDS_P2;PMS_P1;PMS_P2;Temp;Humidity;BMP_temperature;BMP_pressure;BME280_temperature;BME280_humidity;BME280_pressure;Samples;Min_cycle;Max_cycle;Signal;HPM_P1;HPM_P2
2021/04/07 00:01:25;;;;;;;0.10;0.10;;;1.90;96.20;;;;;;4970706;28;20509;-93
2021/04/07 00:03:51;;;;;;;0.20;0.20;;;1.90;96.60;;;;;;4957960;28;20044;-92
2021/04/07 00:06:16;;;;;;;0.10;0.10;;;1.80;96.00;;;;;;4972379;28;20410;-93
2021/04/07 00:08:47;;;;;;;0.40;0.40;;;1.50;96.60;;;;;;4967272;28;20108;-92
2021/04/07 00:11:13;;;;;;;0.10;0.10;;;1.20;97.00;;;;;;4969185;28;20031;-92
2021/04/07 00:13:39;;;;;;;0.40;0.40;;;1.00;97.50;;;;;;4962654;28;20035;-91
2021/04/07 00:16:05;;;;;;;0.20;0.20;;;0.90;97.90;;;;;;4963967;28;20110;-91
2021/04/07 00:18:30;;;;;;;0.30;0.30;;;0.60;99.90;;;;;;4965655;28;20526;-91
2021/04/07 00:20:56;;;;;;;0.25;0.25;;;0.60;98.30;;;;;;4969388;28;20035;-92
2021/04/07 00:23:22;;;;;;;0.10;0.10;;;0.80;98.30;;;;;;4973325;28;20042;-94
2021/04/07 00:25:48;;;;;;;0.15;0.15;;;0.60;98.20;;;;;;4977411;28;20041;-94
2021/04/07 00:28:18;;;;;;;0.10;0.10;;;0.90;97.90;;;;;;4977227;28;20498;-93
2021/04/07 00:30:44;;;;;;;0.25;0.25;;;0.90;98.30;;;;;;4976957;28;20027;-95
2021/04/07 00:33:11;;;;;;;0.10;0.10;;;0.80;98.30;;;;;;4976974;28;20077;-93
2021/04/07 00:35:36;;;;;;;0.20;0.20;;;0.80;98.70;;;;;;4977135;28;20023;-92
2021/04/07 00:38:02;;;;;;;0.10;0.10;;;0.80;98.30;;;;;;4976772;28;20026;-92
2021/04/07 00:40:28;;;;;;;0.10;0.10;;;0.80;98.40;;;;;;4977378;28;20591;-92
2021/04/07 00:42:55;;;;;;;0.32;0.32;;;0.90;97.80;;;;;;4976993;28;20061;-92
2021/04/07 00:45:22;;;;;;;0.10;0.10;;;0.80;98.60;;;;;;4968759;28;20158;-92
2021/04/07 00:47:49;;;;;;;2.10;0.80;;;0.60;98.70;;;;;;4957522;28;20083;-92
2021/04/07 00:50:16;;;;;;;;;;;0.70;98.70;;;;;;4975112;28;20026;-92
2021/04/07 00:52:42;;;;;;;;;;;0.70;98.70;;;;;;4977556;28;19961;-92
2021/04/07 00:55:08;;;;;;;0.50;0.50;;;0.50;98.50;;;;;;4977737;28;19906;-92
2021/04/07 00:57:34;;;;;;;0.10;0.10;;;0.70;99.00;;;;;;4977338;28;20495;-92
2021/04/07 01:00:00;;;;;;;0.40;0.40;;;0.60;98.60;;;;;;4977425;28;20042;-93
2021/04/07 01:02:26;;;;;;;0.43;0.35;;;0.60;98.50;;;;;;4977648;28;20122;-92
2021/04/07 01:04:53;;;;;;;14.00;0.77;;;0.40;98.90;;;;;;4977993;28;20027;-91
2021/04/07 01:07:19;;;;;;;0.20;0.20;;;0.30;99.70;;;;;;4979479;28;20030;-92
2021/04/07 01:09:45;;;;;;;0.20;0.20;;;0.10;99.90;;;;;;4976394;28;20041;-92
2021/04/07 01:12:12;;;;;;;0.45;0.45;;;-0.10;99.90;;;;;;4972692;28;20026;-91
2021/04/07 01:14:38;;;;;;;0.30;0.30;;;-0.20;99.90;;;;;;4966356;28;20114;-91
2021/04/07 01:17:05;;;;;;;0.20;0.20;;;-0.40;99.90;;;;;;4967786;28;20027;-91
2021/04/07 01:19:31;;;;;;;0.30;0.30;;;-0.60;99.90;;;;;;4971688;28;20031;-92
2021/04/07 01:21:57;;;;;;;0.22;0.22;;;-0.60;99.90;;;;;;4973050;28;20507;-92
2021/04/07 01:24:24;;;;;;;0.20;0.20;;;-0.70;99.90;;;;;;4965953;28;20040;-91
2021/04/07 01:26:51;;;;;;;0.63;0.50;;;-0.50;99.90;;;;;;4972771;28;20118;-91
2021/04/07 01:29:17;;;;;;;0.10;0.10;;;-0.40;99.90;;;;;;4967432;28;20035;-90
2021/04/07 01:32:03;;;;;;;0.55;0.55;;;-0.50;99.90;;;;;;4969717;28;20022;-90
2021/04/07 01:34:31;;;;;;;0.63;0.57;;;-0.30;99.90;;;;;;4970143;28;20046;-91
2021/04/07 01:36:59;;;;;;;0.10;0.10;;;-0.30;99.90;;;;;;4968214;28;20027;-91
2021/04/07 01:39:26;;;;;;;0.15;0.15;;;-0.30;99.90;;;;;;4971341;28;20027;-91
2021/04/07 01:41:52;;;;;;;0.10;0.10;;;-0.40;99.90;;;;;;4972683;28;20121;-91
2021/04/07 01:44:19;;;;;;;0.10;0.10;;;-0.30;99.90;;;;;;4966544;28;20062;-91
2021/04/07 01:46:46;;;;;;;0.68;0.68;;;-0.40;99.90;;;;;;4973397;28;20050;-90
2021/04/07 01:49:13;;;;;;;0.20;0.20;;;-0.50;99.90;;;;;;4973292;28;20039;-90
2021/04/07 01:51:39;;;;;;;0.20;0.20;;;-0.40;99.90;;;;;;4971280;28;20085;-94
2021/04/07 01:54:07;;;;;;;0.20;0.20;;;-0.50;99.90;;;;;;4966908;28;20051;-91
2021/04/07 01:56:47;;;;;;;0.10;0.10;;;-0.20;99.90;;;;;;4974303;28;20078;-93
2021/04/07 01:59:14;;;;;;;0.10;0.10;;;0.00;99.90;;;;;;4975310;28;20031;-92
2021/04/07 02:01:39;;;;;;;2.83;1.58;;;0.00;99.90;;;;;;4975413;28;20494;-92
2021/04/07 02:04:06;;;;;;;0.40;0.40;;;-0.10;99.90;;;;;;4975231;28;20127;-91
2021/04/07 02:06:32;;;;;;;0.10;0.10;;;-0.10;99.90;;;;;;4974559;28;20105;-91
2021/04/07 02:08:58;;;;;;;0.30;0.30;;;0.10;99.90;;;;;;4974162;28;20498;-91
2021/04/07 02:11:24;;;;;;;4.45;0.95;;;0.10;99.90;;;;;;4970834;28;20034;-90
2021/04/07 02:13:50;;;;;;;0.17;0.17;;;0.10;99.90;;;;;;4966629;28;20027;-90
2021/04/07 02:16:16;;;;;;;0.20;0.20;;;-0.10;99.90;;;;;;4966785;28;20430;-89
2021/04/07 02:18:43;;;;;;;0.43;0.43;;;-0.20;99.90;;;;;;4967194;28;20328;-91
2021/04/07 02:21:10;;;;;;;0.10;0.10;;;-0.20;99.90;;;;;;4969164;28;20506;-92
2021/04/07 02:23:37;;;;;;;0.10;0.10;;;0.00;99.90;;;;;;4974645;28;20042;-93
2021/04/07 02:26:06;;;;;;;21.40;1.80;;;-0.20;99.90;;;;;;4974947;28;20034;-93
2021/04/07 02:28:33;;;;;;;0.20;0.20;;;-0.20;99.90;;;;;;4974811;28;20039;-93
2021/04/07 02:30:59;;;;;;;1.02;0.52;;;-0.20;99.90;;;;;;4975220;28;20038;-93
2021/04/07 02:33:25;;;;;;;0.22;0.22;;;0.20;99.90;;;;;;4975497;28;20365;-93
2021/04/07 02:35:51;;;;;;;0.10;0.10;;;0.10;99.90;;;;;;4974948;28;20093;-92
2021/04/07 02:38:17;;;;;;;0.10;0.10;;;0.00;99.90;;;;;;4975239;28;20395;-93
2021/04/07 02:40:43;;;;;;;0.20;0.20;;;0.00;99.90;;;;;;4974412;28;20525;-93
2021/04/07 02:43:08;;;;;;;0.40;0.40;;;0.20;99.90;;;;;;4975016;28;20027;-92
2021/04/07 02:45:34;;;;;;;0.10;0.10;;;-0.20;99.90;;;;;;4974146;28;20070;-92
2021/04/07 02:48:00;;;;;;;0.10;0.10;;;-0.30;99.90;;;;;;4960940;28;20079;-92
2021/04/07 02:50:26;;;;;;;3.35;0.75;;;0.00;99.90;;;;;;4966915;28;20039;-92
2021/04/07 02:52:52;;;;;;;0.20;0.20;;;-0.20;99.90;;;;;;4965746;28;20133;-90
2021/04/07 02:55:18;;;;;;;0.17;0.17;;;-0.40;99.90;;;;;;4968644;28;20114;-90
2021/04/07 02:57:44;;;;;;;0.20;0.20;;;-0.50;99.90;;;;;;4964179;28;20029;-90
2021/04/07 03:00:11;;;;;;;0.10;0.10;;;-0.60;99.90;;;;;;4965336;28;20030;-92
2021/04/07 03:02:37;;;;;;;0.20;0.20;;;-0.40;99.90;;;;;;4972010;28;20034;-92
2021/04/07 03:05:04;;;;;;;1.58;1.50;;;-0.70;99.90;;;;;;4970236;28;20573;-91
2021/04/07 03:07:30;;;;;;;0.65;0.65;;;-0.50;99.90;;;;;;4968244;28;20019;-90
2021/04/07 03:09:56;;;;;;;0.40;0.32;;;-0.60;99.90;;;;;;4968717;28;20030;-91
2021/04/07 03:12:22;;;;;;;0.10;0.10;;;-0.80;99.90;;;;;;4970697;28;20027;-91
2021/04/07 03:14:48;;;;;;;0.20;0.20;;;-0.60;99.90;;;;;;4969277;28;20019;-91
2021/04/07 03:17:14;;;;;;;0.10;0.10;;;-0.60;99.90;;;;;;4968690;28;20558;-91
2021/04/07 03:19:40;;;;;;;0.77;0.77;;;-0.80;99.90;;;;;;4966254;28;20059;-90
2021/04/07 03:22:06;;;;;;;1.15;1.05;;;-0.90;99.90;;;;;;4965583;28;20031;-91
2021/04/07 03:24:32;;;;;;;0.10;0.10;;;-0.80;99.90;;;;;;4970615;28;20034;-91
2021/04/07 03:26:58;;;;;;;0.45;0.45;;;-0.90;99.90;;;;;;4973747;28;20027;-93
2021/04/07 03:29:24;;;;;;;0.38;0.38;;;-1.00;99.90;;;;;;4974107;28;20499;-92
2021/04/07 03:31:51;;;;;;;1.38;1.15;;;-1.10;99.90;;;;;;4973919;28;20027;-94
2021/04/07 03:34:16;;;;;;;0.25;0.25;;;-1.00;99.90;;;;;;4973740;28;20023;-92
2021/04/07 03:36:42;;;;;;;0.20;0.20;;;-1.00;99.90;;;;;;4959692;28;20034;-92
2021/04/07 03:39:08;;;;;;;0.98;0.95;;;-1.00;99.90;;;;;;4954884;29;20059;-92
2021/04/07 03:41:33;;;;;;;0.10;0.10;;;-0.90;99.90;;;;;;4954325;28;20483;-92
2021/04/07 03:43:59;;;;;;;0.57;0.57;;;-1.10;99.90;;;;;;4954836;28;20027;-93
2021/04/07 03:46:25;;;;;;;0.22;0.22;;;-1.10;99.90;;;;;;4954571;28;20396;-92
2021/04/07 03:48:51;;;;;;;0.10;0.10;;;-0.80;99.90;;;;;;4971712;28;20031;-92
2021/04/07 03:51:17;;;;;;;0.45;0.45;;;-0.70;99.90;;;;;;4964856;28;20031;-91
2021/04/07 03:53:43;;;;;;;0.10;0.10;;;-0.80;99.90;;;;;;4965518;28;20037;-91
2021/04/07 03:56:09;;;;;;;0.10;0.10;;;-0.70;99.90;;;;;;4959144;28;20127;-91
2021/04/07 03:58:34;;;;;;;0.10;0.10;;;-0.80;99.90;;;;;;4970741;28;20054;-92
2021/04/07 04:01:00;;;;;;;0.20;0.20;;;-0.90;99.90;;;;;;4968063;28;20034;-91
2021/04/07 04:03:27;;;;;;;0.10;0.10;;;-1.00;99.90;;;;;;4966088;28;20106;-92
2021/04/07 04:05:52;;;;;;;3.42;1.83;;;-0.90;99.90;;;;;;4970330;28;20065;-92
2021/04/07 04:08:18;;;;;;;1.45;1.20;;;-1.10;99.90;;;;;;4976220;28;20066;-90
2021/04/07 04:10:44;;;;;;;0.50;0.50;;;-1.00;99.90;;;;;;4956375;28;20027;-91
2021/04/07 04:13:10;;;;;;;0.13;0.13;;;-1.20;99.90;;;;;;4961484;28;20026;-92
2021/04/07 04:15:36;;;;;;;0.13;0.13;;;-1.00;99.90;;;;;;4989209;28;20085;-90
2021/04/07 04:18:06;;;;;;;0.10;0.10;;;-1.20;99.90;;;;;;4968255;28;20067;-91
2021/04/07 04:20:32;;;;;;;0.25;0.25;;;-1.20;99.90;;;;;;4968037;28;20498;-90
2021/04/07 04:22:58;;;;;;;0.85;0.85;;;-1.20;99.90;;;;;;4970337;28;20049;-90
2021/04/07 04:25:24;;;;;;;0.10;0.10;;;-1.20;99.90;;;;;;4969218;28;20023;-90
2021/04/07 04:27:50;;;;;;;0.43;0.43;;;-1.30;99.90;;;;;;4969070;28;20386;-91
2021/04/07 04:30:19;;;;;;;0.43;0.43;;;-1.30;99.90;;;;;;4974346;28;20062;-92
2021/04/07 04:32:46;;;;;;;0.10;0.10;;;-1.30;99.90;;;;;;4974256;28;20038;-90
2021/04/07 04:35:13;;;;;;;1.05;0.50;;;-1.10;99.90;;;;;;4970064;28;20410;-89
2021/04/07 04:37:41;;;;;;;0.10;0.10;;;-1.30;99.90;;;;;;4971036;28;20053;-89
2021/04/07 04:40:10;;;;;;;0.10;0.10;;;-1.50;99.90;;;;;;4972584;28;20073;-91
2021/04/07 04:42:37;;;;;;;2.50;0.60;;;-1.40;99.90;;;;;;4971995;28;20034;-90
2021/04/07 04:45:05;;;;;;;0.10;0.10;;;-1.40;99.90;;;;;;4967308;28;20034;-89
2021/04/07 04:47:31;;;;;;;0.20;0.20;;;-1.60;99.90;;;;;;4970891;28;20065;-90
2021/04/07 04:49:58;;;;;;;0.95;0.88;;;-1.50;99.90;;;;;;4973210;28;20038;-93
2021/04/07 04:52:24;;;;;;;0.10;0.10;;;-1.30;99.90;;;;;;4977479;28;20031;-91
2021/04/07 04:54:51;;;;;;;0.20;0.20;;;-1.40;99.90;;;;;;4971943;28;20495;-90
2021/04/07 04:57:18;;;;;;;0.10;0.10;;;-1.40;99.90;;;;;;4973371;28;20090;-91
2021/04/07 04:59:44;;;;;;;0.10;0.10;;;-1.50;99.90;;;;;;4984308;28;20026;-89
2021/04/07 05:02:11;;;;;;;0.10;0.10;;;-1.20;99.90;;;;;;4976258;28;20027;-93
2021/04/07 05:04:37;;;;;;;0.10;0.10;;;-1.40;99.90;;;;;;4975303;28;20031;-92
2021/04/07 05:07:03;;;;;;;0.20;0.20;;;-1.10;99.90;;;;;;4973657;28;21580;-94
2021/04/07 05:09:29;;;;;;;0.20;0.20;;;-1.00;99.90;;;;;;4975461;28;20027;-93
2021/04/07 05:11:56;;;;;;;1.60;1.50;;;-1.10;99.90;;;;;;4976752;28;20082;-92
2021/04/07 05:14:22;;;;;;;0.73;0.73;;;-1.40;99.90;;;;;;4976441;28;20089;-92
2021/04/07 05:16:48;;;;;;;0.40;0.40;;;-1.50;99.90;;;;;;4975845;28;20019;-91
2021/04/07 05:19:15;;;;;;;1.55;1.48;;;-1.50;99.90;;;;;;4964152;28;20038;-92
2021/04/07 05:21:41;;;;;;;12.45;2.10;;;-1.60;99.90;;;;;;4968656;28;20018;-91
2021/04/07 05:24:08;;;;;;;0.52;0.52;;;-1.70;99.90;;;;;;4976357;28;20122;-89
2021/04/07 05:26:39;;;;;;;0.60;0.60;;;-1.60;99.90;;;;;;4976062;28;20023;-91
2021/04/07 05:29:06;;;;;;;0.95;0.95;;;-1.70;99.90;;;;;;4956517;28;20039;-91
2021/04/07 05:31:35;;;;;;;1.00;1.00;;;-1.60;99.90;;;;;;4956613;29;20512;-91
2021/04/07 05:34:01;;;;;;;0.10;0.10;;;-1.50;99.90;;;;;;4963486;28;20034;-91
2021/04/07 05:36:27;;;;;;;1.02;1.02;;;-1.20;99.90;;;;;;4972492;28;20022;-91
2021/04/07 05:38:53;;;;;;;0.85;0.85;;;-1.10;99.90;;;;;;4975138;28;20054;-89
2021/04/07 05:41:21;;;;;;;0.45;0.45;;;-0.70;99.90;;;;;;4962014;28;20155;-91
2021/04/07 05:44:18;;;;;;;0.52;0.52;;;-0.50;99.90;;;;;;4955272;28;20050;-89
2021/04/07 05:46:43;;;;;;;0.20;0.20;;;-0.20;99.90;;;;;;4964057;28;20051;-91
2021/04/07 05:49:09;;;;;;;0.15;0.15;;;-0.20;99.90;;;;;;4973851;28;20525;-89
2021/04/07 05:51:35;;;;;;;0.20;0.20;;;-0.20;99.90;;;;;;4973879;28;20023;-91
2021/04/07 05:54:01;;;;;;;4.15;1.80;;;-0.30;99.90;;;;;;4974930;28;20532;-91
2021/04/07 05:56:41;;;;;;;1.00;1.00;;;-0.20;99.90;;;;;;4975321;28;20023;-92
2021/04/07 05:59:37;;;;;;;2.90;0.63;;;-0.10;99.90;;;;;;4975140;28;20043;-92
2021/04/07 06:02:09;;;;;;;0.60;0.60;;;0.00;99.90;;;;;;4987976;28;20027;-90
2021/04/07 06:04:34;;;;;;;0.20;0.20;;;1.00;99.90;;;;;;4961795;28;20126;-87
2021/04/07 06:07:02;;;;;;;1.10;1.05;;;2.60;99.90;;;;;;4962353;28;20126;-90
2021/04/07 06:09:29;;;;;;;0.45;0.45;;;2.70;99.90;;;;;;4967677;28;20050;-89
2021/04/07 06:11:55;;;;;;;0.52;0.52;;;3.30;99.90;;;;;;4970551;28;20019;-89
2021/04/07 06:14:20;;;;;;;0.20;0.20;;;4.80;99.90;;;;;;4966324;28;20057;-91
2021/04/07 06:16:47;;;;;;;1.02;1.02;;;6.10;98.40;;;;;;4968449;28;20073;-89
2021/04/07 06:19:14;;;;;;;1.27;1.20;;;5.50;98.50;;;;;;4967311;28;20035;-90
2021/04/07 06:21:40;;;;;;;;;;;4.40;99.90;;;;;;4971697;28;20125;-93
2021/04/07 06:24:07;;;;;;;0.30;0.30;;;3.80;99.90;;;;;;4972220;28;19910;-89
2021/04/07 06:26:36;;;;;;;;;;;2.00;99.90;;;;;;4974706;28;20035;-92
2021/04/07 06:29:03;;;;;;;0.13;0.13;;;1.00;99.90;;;;;;4963828;28;19926;-90
2021/04/07 06:31:29;;;;;;;0.60;0.60;;;1.30;99.90;;;;;;4969947;28;20027;-95
2021/04/07 06:33:56;;;;;;;0.47;0.47;;;0.80;99.90;;;;;;4964908;28;20030;-91
2021/04/07 06:36:21;;;;;;;0.40;0.40;;;1.60;99.90;;;;;;4969417;28;20034;-89
2021/04/07 06:38:47;;;;;;;0.60;0.60;;;1.50;99.90;;;;;;4974163;28;20042;-93
2021/04/07 06:41:15;;;;;;;0.52;0.52;;;4.50;99.90;;;;;;4991331;28;20058;-93
2021/04/07 06:43:42;;;;;;;0.70;0.70;;;6.20;99.70;;;;;;4992481;28;20483;-94
2021/04/07 06:46:11;;;;;;;;;;;6.10;97.00;;;;;;4996890;28;20114;-94
2021/04/07 06:48:39;;;;;;;0.20;0.20;;;6.30;95.50;;;;;;4981930;28;19917;-94
2021/04/07 06:51:06;;;;;;;0.35;0.35;;;7.10;97.00;;;;;;4991092;28;20031;-94
2021/04/07 06:53:33;;;;;;;0.20;0.20;;;7.10;94.90;;;;;;4989695;28;20097;-92
2021/04/07 06:56:00;;;;;;;0.65;0.65;;;8.80;94.60;;;;;;4972565;28;20038;-88
2021/04/07 06:58:26;;;;;;;0.25;0.25;;;7.30;92.60;;;;;;4971079;28;20085;-92
2021/04/07 07:00:54;;;;;;;0.85;0.85;;;5.60;94.90;;;;;;4970882;28;20038;-91
2021/04/07 07:03:20;;;;;;;0.15;0.15;;;5.40;97.00;;;;;;4968958;28;20736;-89
2021/04/07 07:05:51;;;;;;;0.10;0.10;;;7.20;96.20;;;;;;4982431;28;20077;-90
2021/04/07 07:08:21;;;;;;;0.10;0.10;;;7.00;97.50;;;;;;4977230;28;20028;-90
2021/04/07 07:10:54;;;;;;;0.20;0.20;;;4.40;97.60;;;;;;4967077;28;20054;-91
2021/04/07 07:13:25;;;;;;;0.10;0.10;;;5.70;99.40;;;;;;4971206;28;20026;-90
2021/04/07 07:15:53;;;;;;;1.38;1.02;;;7.10;98.20;;;;;;4985648;28;20440;-91
2021/04/07 07:18:29;;;;;;;0.68;0.68;;;8.40;96.40;;;;;;4967449;28;20549;-91
2021/04/07 07:20:56;;;;;;;0.10;0.10;;;9.20;94.50;;;;;;4982594;28;20494;-92
2021/04/07 07:23:30;;;;;;;1.45;0.80;;;8.90;95.20;;;;;;4970681;28;20125;-91
2021/04/07 07:26:07;;;;;;;0.60;0.60;;;9.00;95.10;;;;;;4981546;28;20085;-91
2021/04/07 07:28:40;;;;;;;1.48;1.13;;;9.00;94.30;;;;;;4969778;28;20046;-91
2021/04/07 07:31:21;;;;;;;0.55;0.55;;;9.80;93.70;;;;;;4985575;28;20035;-91
2021/04/07 07:33:47;;;;;;;0.30;0.30;;;11.30;90.90;;;;;;4962969;28;20078;-92
2021/04/07 07:36:15;;;;;;;0.10;0.10;;;11.00;87.90;;;;;;4979661;28;20403;-90
2021/04/07 07:38:53;;;;;;;0.20;0.20;;;11.60;84.50;;;;;;4967887;28;20122;-91
2021/04/07 07:41:27;;;;;;;1.02;1.00;;;11.70;83.20;;;;;;4968704;28;20093;-91
2021/04/07 07:43:54;;;;;;;0.65;0.65;;;11.40;85.40;;;;;;4968865;28;20058;-92
2021/04/07 07:46:25;;;;;;;0.10;0.10;;;11.20;85.20;;;;;;4971617;28;20022;-91
2021/04/07 07:48:51;;;;;;;0.05;0.05;;;10.70;87.90;;;;;;4961615;28;20043;-90
2021/04/07 07:51:20;;;;;;;0.10;0.10;;;10.70;85.00;;;;;;4967323;28;20418;-92
2021/04/07 07:53:50;;;;;;;0.10;0.10;;;10.70;87.10;;;;;;4967751;28;20101;-90
2021/04/07 07:56:17;;;;;;;0.38;0.05;;;12.00;85.50;;;;;;4968155;28;20487;-90
2021/04/07 07:58:49;;;;;;;0.20;0.20;;;11.50;86.80;;;;;;4966194;28;20692;-91
2021/04/07 08:01:16;;;;;;;1.00;0.50;;;12.00;80.60;;;;;;4979303;28;20115;-91
2021/04/07 08:03:46;;;;;;;0.05;0.05;;;11.20;85.20;;;;;;4968249;28;20042;-91
2021/04/07 08:06:14;;;;;;;0.20;0.20;;;13.00;84.80;;;;;;4964814;28;20744;-92
2021/04/07 08:08:40;;;;;;;0.10;0.10;;;12.10;80.40;;;;;;4964936;28;20032;-90
2021/04/07 08:11:10;;;;;;;0.20;0.20;;;11.80;86.90;;;;;;4967067;28;20023;-91
2021/04/07 08:13:38;;;;;;;0.38;0.38;;;12.00;86.90;;;;;;4966763;28;20027;-89
2021/04/07 08:16:06;;;;;;;0.20;0.20;;;11.70;89.00;;;;;;4966334;28;20610;-91
2021/04/07 08:18:33;;;;;;;0.10;0.10;;;11.30;89.00;;;;;;4977647;28;20392;-92
2021/04/07 08:21:00;;;;;;;0.00;0.00;;;11.60;88.30;;;;;;4966424;28;20050;-90
2021/04/07 08:23:28;;;;;;;0.00;0.00;;;10.10;90.40;;;;;;4967957;28;20170;-90
2021/04/07 08:25:55;;;;;;;0.00;0.00;;;10.70;87.60;;;;;;4967512;28;20023;-90
2021/04/07 08:28:23;;;;;;;0.82;0.40;;;12.80;85.20;;;;;;4979562;28;20042;-90
2021/04/07 08:30:50;;;;;;;0.10;0.10;;;11.40;87.40;;;;;;4979779;28;20093;-89
2021/04/07 08:33:20;;;;;;;0.20;0.20;;;11.60;87.10;;;;;;4963667;28;20023;-90
2021/04/07 08:35:47;;;;;;;0.00;0.00;;;13.10;82.20;;;;;;4964010;28;20027;-92
2021/04/07 08:38:14;;;;;;;0.20;0.20;;;12.80;83.20;;;;;;4966636;28;20515;-90
2021/04/07 08:40:43;;;;;;;0.00;0.00;;;13.70;81.30;;;;;;4963695;28;20158;-90
2021/04/07 08:43:15;;;;;;;0.17;0.17;;;13.60;79.20;;;;;;4966064;28;20026;-92
2021/04/07 08:45:46;;;;;;;0.00;0.00;;;16.20;68.10;;;;;;4967426;28;20081;-90
2021/04/07 08:48:18;;;;;;;0.10;0.10;;;16.70;68.90;;;;;;4974861;28;20086;-91
2021/04/07 08:50:48;;;;;;;1.95;1.02;;;16.30;71.80;;;;;;4976186;28;20037;-91
2021/04/07 08:53:16;;;;;;;0.40;0.40;;;15.10;74.00;;;;;;4967596;28;20042;-90
2021/04/07 08:55:54;;;;;;;0.00;0.00;;;13.50;71.40;;;;;;4957968;28;20027;-91
2021/04/07 08:58:26;;;;;;;2.40;1.40;;;14.00;73.00;;;;;;4965358;28;20101;-92
2021/04/07 09:00:55;;;;;;;0.00;0.00;;;14.40;71.60;;;;;;4974767;28;20126;-93
2021/04/07 09:03:24;;;;;;;0.10;0.10;;;13.40;79.30;;;;;;4966917;28;20041;-93
2021/04/07 09:05:51;;;;;;;0.20;0.15;;;14.60;74.50;;;;;;4968098;28;20023;-91
2021/04/07 09:08:19;;;;;;;;;;;15.80;65.00;;;;;;4976119;28;20509;-90
2021/04/07 09:10:47;;;;;;;0.47;0.47;;;13.70;71.20;;;;;;4991616;28;19914;-92
2021/04/07 09:13:16;;;;;;;0.00;0.00;;;15.50;69.00;;;;;;4974485;28;20033;-90
2021/04/07 09:16:01;;;;;;;0.22;0.22;;;13.60;77.10;;;;;;4976502;28;20030;-91
2021/04/07 09:18:40;;;;;;;0.10;0.10;;;14.50;75.60;;;;;;4972469;28;20438;-92
2021/04/07 09:21:24;;;;;;;0.13;0.10;;;15.00;71.00;;;;;;4959848;28;20035;-92
2021/04/07 09:23:58;;;;;;;0.10;0.10;;;14.10;68.30;;;;;;4968251;28;20023;-93
2021/04/07 09:26:29;;;;;;;0.00;0.00;;;14.80;69.20;;;;;;4974235;28;20023;-91
2021/04/07 09:28:56;;;;;;;0.20;0.20;;;13.80;73.60;;;;;;4974812;28;20022;-91
2021/04/07 09:31:24;;;;;;;0.03;0.03;;;16.70;62.80;;;;;;4974969;28;20042;-92
2021/04/07 09:33:53;;;;;;;0.00;0.00;;;16.70;64.20;;;;;;4990579;28;20543;-91
2021/04/07 09:36:32;;;;;;;0.00;0.00;;;14.80;69.70;;;;;;4973210;28;20030;-92
2021/04/07 09:39:04;;;;;;;0.30;0.30;;;13.10;72.80;;;;;;4972268;28;20499;-91
2021/04/07 09:41:35;;;;;;;0.28;0.28;;;14.10;66.90;;;;;;4973328;28;20089;-92
2021/04/07 09:44:06;;;;;;;0.00;0.00;;;14.20;65.00;;;;;;4975352;28;20031;-91
2021/04/07 09:46:33;;;;;;;0.20;0.20;;;14.80;70.30;;;;;;4972001;28;20073;-89
2021/04/07 09:49:05;;;;;;;0.60;0.60;;;14.90;66.90;;;;;;4970240;28;20023;-92
2021/04/07 09:51:31;;;;;;;0.03;0.03;;;14.80;67.80;;;;;;4973749;28;20066;-91
2021/04/07 09:54:16;;;;;;;0.20;0.20;;;16.80;60.10;;;;;;4971311;28;20023;-93
2021/04/07 09:56:50;;;;;;;0.08;0.08;;;14.40;65.90;;;;;;4959010;28;20040;-92
2021/04/07 09:59:17;;;;;;;0.00;0.00;;;13.50;67.20;;;;;;4969657;28;20073;-91
2021/04/07 10:01:44;;;;;;;;;;;15.00;63.50;;;;;;4970484;28;20517;-91
2021/04/07 10:04:10;;;;;;;3.42;0.73;;;14.70;64.10;;;;;;4968780;28;20021;-91
2021/04/07 10:06:38;;;;;;;0.05;0.05;;;14.50;68.50;;;;;;4965064;28;20027;-91
2021/04/07 10:09:06;;;;;;;0.03;0.03;;;15.50;66.20;;;;;;4969022;28;20042;-87
2021/04/07 10:11:36;;;;;;;0.20;0.20;;;14.80;67.40;;;;;;4964762;28;20023;-88
2021/04/07 10:14:03;;;;;;;0.00;0.00;;;15.30;67.50;;;;;;4963502;28;20033;-89
2021/04/07 10:16:34;;;;;;;0.00;0.00;;;19.10;56.20;;;;;;4966941;28;20023;-91
2021/04/07 10:19:04;;;;;;;0.00;0.00;;;19.00;56.60;;;;;;4970942;28;20089;-91
2021/04/07 10:21:30;;;;;;;0.00;0.00;;;18.10;56.90;;;;;;4968977;28;20106;-92
2021/04/07 10:23:58;;;;;;;0.00;0.00;;;20.30;46.00;;;;;;4969136;28;20118;-90
2021/04/07 10:26:24;;;;;;;0.10;0.10;;;18.20;57.60;;;;;;4966452;28;20065;-89
2021/04/07 10:29:00;;;;;;;0.15;0.15;;;19.40;51.70;;;;;;4969133;28;20058;-90
2021/04/07 10:31:27;;;;;;;0.25;0.25;;;17.50;57.30;;;;;;4968124;28;20022;-90
2021/04/07 10:34:09;;;;;;;0.05;0.05;;;19.40;46.90;;;;;;4968476;28;20023;-91
2021/04/07 10:36:37;;;;;;;0.00;0.00;;;17.00;55.90;;;;;;4968273;28;20431;-89
2021/04/07 10:39:19;;;;;;;0.40;0.40;;;16.80;57.40;;;;;;4969332;28;20035;-91
2021/04/07 10:41:47;;;;;;;0.30;0.30;;;20.80;43.40;;;;;;4964012;28;20573;-89
2021/04/07 10:44:23;;;;;;;0.10;0.10;;;16.10;50.90;;;;;;4970261;28;20487;-91
2021/04/07 10:46:49;;;;;;;0.15;0.15;;;18.30;47.80;;;;;;4967436;28;20050;-90
2021/04/07 10:49:16;;;;;;;0.38;0.32;;;19.00;42.20;;;;;;4969665;28;20041;-91
2021/04/07 10:51:43;;;;;;;0.10;0.10;;;15.40;61.30;;;;;;4968964;28;20053;-88
2021/04/07 10:54:10;;;;;;;;;;;16.80;54.00;;;;;;4969706;28;20038;-93
2021/04/07 10:56:38;;;;;;;0.20;0.20;;;16.00;61.60;;;;;;4970502;28;19910;-89
2021/04/07 10:59:12;;;;;;;0.00;0.00;;;16.70;59.30;;;;;;4967682;28;20031;-89
2021/04/07 11:01:39;;;;;;;0.10;0.10;;;17.40;49.20;;;;;;4957489;28;20418;-88
2021/04/07 11:04:15;;;;;;;0.10;0.10;;;16.40;52.80;;;;;;4966942;28;20030;-92
2021/04/07 11:06:41;;;;;;;0.15;0.15;;;14.40;54.60;;;;;;4962914;28;20071;-90
2021/04/07 11:09:12;;;;;;;0.10;0.10;;;14.30;64.70;;;;;;4969352;28;20074;-88
2021/04/07 11:11:40;;;;;;;0.10;0.10;;;18.00;55.30;;;;;;4960320;28;20138;-87
2021/04/07 11:14:10;;;;;;;0.00;0.00;;;18.50;52.90;;;;;;4969519;28;20031;-89
2021/04/07 11:16:36;;;;;;;0.00;0.00;;;16.90;55.20;;;;;;4975520;28;20722;-91
2021/04/07 11:19:14;;;;;;;0.00;0.00;;;18.10;55.70;;;;;;4968059;28;20114;-87
2021/04/07 11:21:40;;;;;;;0.10;0.10;;;18.50;55.00;;;;;;4970602;28;20517;-88
2021/04/07 11:24:06;;;;;;;0.20;0.20;;;17.60;55.30;;;;;;4967201;28;20066;-88
2021/04/07 11:26:32;;;;;;;0.00;0.00;;;15.10;62.40;;;;;;4968605;28;20098;-88
2021/04/07 11:28:59;;;;;;;0.00;0.00;;;16.10;60.50;;;;;;4969459;28;20045;-88
2021/04/07 11:31:28;;;;;;;0.00;0.00;;;14.50;57.90;;;;;;4968149;28;20727;-89
2021/04/07 11:34:05;;;;;;;0.10;0.10;;;17.20;58.10;;;;;;4962429;28;20034;-89
2021/04/07 11:36:49;;;;;;;0.10;0.10;;;19.60;48.00;;;;;;4984324;28;20483;-90
2021/04/07 11:39:22;;;;;;;0.73;0.73;;;15.50;52.40;;;;;;4967386;28;20034;-89
2021/04/07 11:44:29;;;;;;;0.20;0.20;;;11.40;62.50;;;;;;4965979;28;20035;-88
2021/04/07 11:46:56;;;;;;;0.10;0.10;;;11.20;63.90;;;;;;4968274;28;20979;-88
2021/04/07 11:49:22;;;;;;;0.20;0.20;;;9.60;70.30;;;;;;4967011;28;20031;-89
2021/04/07 11:51:48;;;;;;;0.10;0.10;;;9.90;67.00;;;;;;4967932;28;20037;-88
2021/04/07 11:54:14;;;;;;;0.10;0.10;;;10.10;67.40;;;;;;4967745;28;20129;-88
2021/04/07 11:56:44;;;;;;;0.10;0.10;;;10.30;66.90;;;;;;4969232;28;20117;-88
2021/04/07 11:59:14;;;;;;;0.00;0.00;;;10.60;65.70;;;;;;4967488;28;20403;-89
2021/04/07 12:01:48;;;;;;;0.00;0.00;;;10.70;64.30;;;;;;4968147;28;20081;-88
2021/04/07 12:04:14;;;;;;;0.00;0.00;;;10.90;66.00;;;;;;4969349;28;20046;-89
2021/04/07 12:06:41;;;;;;;0.00;0.00;;;11.50;64.60;;;;;;4969030;28;20495;-89
2021/04/07 12:09:07;;;;;;;;;;;10.40;68.20;;;;;;4962669;28;20043;-89
2021/04/07 12:11:34;;;;;;;0.00;0.00;;;10.90;67.40;;;;;;4962774;28;20400;-88
2021/04/07 12:14:00;;;;;;;0.00;0.00;;;11.40;65.70;;;;;;4969168;28;20026;-88
2021/04/07 12:16:26;;;;;;;0.43;0.40;;;11.20;65.30;;;;;;4964891;28;20026;-88
2021/04/07 12:18:53;;;;;;;0.13;0.13;;;11.20;65.80;;;;;;4969205;28;20038;-89
2021/04/07 12:21:19;;;;;;;1.10;0.85;;;11.10;65.50;;;;;;4970169;28;20080;-88
2021/04/07 12:23:46;;;;;;;0.10;0.10;;;10.80;65.60;;;;;;4970324;28;20023;-89
2021/04/07 12:26:14;;;;;;;0.10;0.10;;;10.00;68.30;;;;;;4972364;28;20035;-89
2021/04/07 12:28:44;;;;;;;0.00;0.00;;;9.70;69.00;;;;;;4969266;28;20027;-89
2021/04/07 12:31:15;;;;;;;0.00;0.00;;;9.70;69.00;;;;;;4972093;28;20030;-88
2021/04/07 12:33:48;;;;;;;0.00;0.00;;;10.10;68.00;;;;;;4972409;28;20135;-89
2021/04/07 12:36:15;;;;;;;0.10;0.10;;;10.40;66.50;;;;;;4966136;28;20399;-88
2021/04/07 12:38:40;;;;;;;0.43;0.37;;;9.80;66.70;;;;;;4971843;28;20054;-89
2021/04/07 12:41:20;;;;;;;0.00;0.00;;;9.70;67.00;;;;;;4970691;28;20059;-88
2021/04/07 12:43:45;;;;;;;0.00;0.00;;;9.40;69.10;;;;;;4969613;28;20030;-88
2021/04/07 12:46:11;;;;;;;0.00;0.00;;;9.50;68.30;;;;;;4971436;28;20026;-89
2021/04/07 12:48:38;;;;;;;0.08;0.08;;;9.60;69.00;;;;;;4970199;28;20151;-88
2021/04/07 12:51:04;;;;;;;0.00;0.00;;;10.10;67.50;;;;;;4970805;28;20070;-88
2021/04/07 12:53:30;;;;;;;0.00;0.00;;;9.90;66.80;;;;;;4983669;28;20035;-88
2021/04/07 12:55:55;;;;;;;0.00;0.00;;;10.00;67.80;;;;;;4970698;28;20034;-88
2021/04/07 12:58:23;;;;;;;0.00;0.00;;;9.80;68.40;;;;;;4971051;28;20066;-88
2021/04/07 13:00:48;;;;;;;;;;;9.80;67.80;;;;;;4970890;28;20023;-88